createdAt,value
2023-01-18T00:01:22.012Z,65.80
2023-01-18T00:03:50.480Z,65.70
2023-01-18T00:06:18.298Z,65.60
2023-01-18T00:08:46.347Z,65.70
2023-01-18T00:15:46.998Z,65.90
2023-01-18T00:18:14.726Z,65.70
2023-01-18T00:20:42.775Z,65.70
2023-01-18T00:23:10.410Z,65.80
2023-01-18T00:25:38.401Z,65.70
2023-01-18T00:28:06.040Z,65.70
2023-01-18T00:30:34.010Z,65.70
2023-01-18T00:33:01.906Z,65.80
2023-01-18T00:35:30.019Z,66.10
2023-01-18T00:43:01.316Z,66.30
2023-01-18T00:45:29.518Z,66.10
2023-01-18T00:47:57.330Z,66.20
2023-01-18T00:50:25.479Z,66.20
2023-01-18T00:52:57.396Z,66.10
2023-01-18T00:55:26.782Z,66.20
2023-01-18T00:57:54.933Z,66.20
2023-01-18T01:00:24.053Z,66.20
2023-01-18T01:02:51.957Z,66.20
2023-01-18T01:05:41.196Z,66.40
2023-01-18T01:08:17.518Z,66.40
2023-01-18T01:10:47.792Z,66.40
2023-01-18T01:13:35.734Z,66.60
2023-01-18T01:16:30.626Z,66.90
2023-01-18T01:19:17.194Z,67.00
2023-01-18T01:22:03.505Z,67.00
2023-01-18T01:24:49.711Z,67.10
2023-01-18T01:27:18.024Z,67.20
2023-01-18T01:29:45.934Z,67.20
2023-01-18T01:32:13.995Z,67.30
2023-01-18T01:34:41.693Z,67.50
2023-01-18T01:37:09.940Z,67.60
2023-01-18T01:39:37.637Z,67.80
2023-01-18T01:42:05.729Z,67.80
2023-01-18T01:44:34.619Z,67.90
2023-01-18T01:47:09.784Z,67.90
2023-01-18T01:54:07.332Z,67.90
2023-01-18T01:56:35.060Z,67.70
2023-01-18T01:59:04.063Z,67.70
2023-01-18T02:01:32.283Z,67.60
2023-01-18T02:04:02.048Z,67.60
2023-01-18T02:06:37.444Z,67.60
2023-01-18T02:09:09.335Z,67.50
2023-01-18T02:11:37.597Z,67.40
2023-01-18T02:14:10.365Z,67.40
2023-01-18T02:16:50.141Z,67.50
2023-01-18T02:19:32.612Z,67.70
2023-01-18T02:22:19.160Z,67.70
2023-01-18T02:25:24.455Z,67.70
2023-01-18T02:28:06.423Z,67.70
2023-01-18T02:30:53.546Z,67.60
2023-01-18T02:33:47.246Z,67.60
2023-01-18T02:36:34.997Z,67.60
2023-01-18T02:39:38.551Z,67.60
2023-01-18T02:42:38.797Z,67.70
2023-01-18T02:45:44.410Z,67.70
2023-01-18T02:48:13.150Z,67.70
2023-01-18T02:50:40.990Z,67.70
2023-01-18T02:53:13.937Z,67.60
2023-01-18T02:56:08.250Z,67.60
2023-01-18T02:58:41.221Z,67.70
2023-01-18T03:01:17.761Z,67.70
2023-01-18T03:03:48.832Z,67.80
2023-01-18T03:06:17.647Z,67.70
2023-01-18T03:08:49.244Z,67.70
2023-01-18T03:11:21.522Z,67.50
2023-01-18T03:14:04.656Z,67.60
2023-01-18T03:16:58.154Z,67.60
2023-01-18T03:19:55.229Z,67.70
2023-01-18T03:22:43.194Z,67.80
2023-01-18T03:25:17.799Z,67.80
2023-01-18T03:28:08.034Z,68.00
2023-01-18T03:30:58.059Z,68.30
2023-01-18T03:33:49.130Z,68.50
2023-01-18T03:36:18.982Z,68.60
2023-01-18T03:38:51.027Z,68.70
2023-01-18T03:41:22.636Z,68.70
2023-01-18T03:43:54.503Z,68.70
2023-01-18T03:46:26.651Z,68.70
2023-01-18T03:48:54.497Z,68.60
2023-01-18T03:51:38.094Z,68.60
2023-01-18T03:54:10.035Z,68.70
2023-01-18T03:56:54.697Z,68.70
2023-01-18T03:59:22.864Z,68.80
2023-01-18T04:01:51.047Z,69.00
2023-01-18T04:04:18.858Z,69.10
2023-01-18T04:06:47.100Z,69.30
2023-01-18T04:09:14.871Z,69.50
2023-01-18T04:11:42.889Z,69.70
2023-01-18T04:14:10.553Z,70.10
2023-01-18T04:16:38.548Z,70.30
2023-01-18T04:19:08.968Z,70.40
2023-01-18T04:21:38.697Z,70.50
2023-01-18T04:24:07.589Z,70.60
2023-01-18T04:26:35.840Z,70.50
2023-01-18T04:29:04.124Z,70.50
2023-01-18T04:31:32.417Z,70.40
2023-01-18T04:34:00.194Z,70.40
2023-01-18T04:36:32.152Z,70.40
2023-01-18T04:39:00.228Z,70.30
2023-01-18T04:41:28.731Z,70.10
2023-01-18T04:43:56.434Z,70.10
2023-01-18T04:46:24.690Z,70.20
2023-01-18T04:48:52.975Z,70.20
2023-01-18T04:51:24.125Z,70.20
2023-01-18T04:53:52.215Z,70.20
2023-01-18T04:56:20.353Z,70.10
2023-01-18T04:58:48.190Z,70.10
2023-01-18T05:01:17.437Z,70.10
2023-01-18T05:03:45.752Z,70.10
2023-01-18T05:06:15.523Z,70.20
2023-01-18T05:08:43.462Z,70.30
2023-01-18T05:11:17.367Z,70.20
2023-01-18T05:13:46.475Z,70.20
2023-01-18T05:16:22.031Z,70.20
2023-01-18T05:18:49.740Z,70.20
2023-01-18T05:25:46.240Z,70.40
2023-01-18T05:28:14.018Z,70.20
2023-01-18T05:30:43.287Z,70.30
2023-01-18T05:33:10.959Z,70.50
2023-01-18T05:35:39.091Z,70.60
2023-01-18T05:38:06.845Z,70.80
2023-01-18T05:40:34.837Z,70.90
2023-01-18T05:43:02.538Z,71.00
2023-01-18T05:45:30.545Z,71.10
2023-01-18T05:47:58.191Z,71.30
2023-01-18T05:50:26.340Z,71.50
2023-01-18T05:52:54.705Z,71.50
2023-01-18T05:55:22.794Z,71.70
2023-01-18T05:57:50.551Z,71.70
2023-01-18T06:00:18.946Z,71.80
2023-01-18T06:02:46.710Z,71.90
2023-01-18T06:05:15.972Z,71.80
2023-01-18T06:07:43.764Z,71.70
2023-01-18T06:10:11.968Z,71.70
2023-01-18T06:12:40.178Z,71.60
2023-01-18T06:15:10.163Z,71.50
2023-01-18T06:17:38.561Z,71.50
2023-01-18T06:20:07.704Z,71.50
2023-01-18T06:22:35.508Z,71.50
2023-01-18T06:25:03.761Z,71.50
2023-01-18T06:27:31.518Z,71.50
2023-01-18T06:29:59.551Z,71.40
2023-01-18T06:32:27.268Z,71.30
2023-01-18T06:34:55.316Z,71.30
2023-01-18T06:37:23.116Z,71.50
2023-01-18T06:39:51.311Z,71.60
2023-01-18T06:42:19.033Z,71.70
2023-01-18T06:44:47.111Z,71.80
2023-01-18T06:47:20.056Z,71.80
2023-01-18T06:49:48.397Z,71.70
2023-01-18T06:52:16.532Z,71.60
2023-01-18T06:54:45.042Z,71.50
2023-01-18T06:57:12.897Z,71.70
2023-01-18T06:59:41.016Z,71.80
2023-01-18T07:02:14.432Z,72.00
2023-01-18T07:04:44.446Z,72.10
2023-01-18T07:07:14.492Z,72.20
2023-01-18T07:09:42.760Z,72.20
2023-01-18T07:12:10.516Z,72.30
2023-01-18T07:14:38.579Z,72.30
2023-01-18T07:17:06.479Z,72.30
2023-01-18T07:19:36.682Z,72.20
2023-01-18T07:22:04.575Z,72.20
2023-01-18T07:24:32.749Z,72.10
2023-01-18T07:27:00.517Z,72.10
2023-01-18T07:29:28.575Z,72.20
2023-01-18T07:31:56.555Z,72.10
2023-01-18T07:34:24.619Z,72.10
2023-01-18T07:36:52.888Z,72.00
2023-01-18T07:39:21.256Z,72.00
2023-01-18T07:41:49.106Z,72.00
2023-01-18T07:44:19.044Z,72.00
2023-01-18T07:46:46.699Z,72.00
2023-01-18T07:49:15.910Z,72.10
2023-01-18T07:51:43.599Z,72.20
2023-01-18T07:54:12.431Z,72.30
2023-01-18T07:56:40.484Z,72.30
2023-01-18T07:59:08.492Z,72.30
2023-01-18T08:01:36.476Z,72.20
2023-01-18T08:04:06.253Z,72.30
2023-01-18T08:06:34.099Z,72.20
2023-01-18T08:09:02.520Z,72.20
2023-01-18T08:11:30.474Z,72.30
2023-01-18T08:13:58.474Z,72.30
2023-01-18T08:16:27.109Z,72.30
2023-01-18T08:18:55.369Z,72.30
2023-01-18T08:21:23.255Z,72.20
2023-01-18T08:23:54.034Z,72.10
2023-01-18T08:26:21.949Z,72.10
2023-01-18T08:28:50.650Z,72.20
2023-01-18T08:31:21.878Z,72.20
2023-01-18T08:33:51.275Z,72.40
2023-01-18T08:36:22.744Z,72.40
2023-01-18T08:39:00.826Z,72.60
2023-01-18T08:41:29.456Z,72.70
2023-01-18T08:43:58.948Z,72.50
2023-01-18T08:46:27.153Z,72.70
2023-01-18T08:48:59.305Z,72.80
2023-01-18T08:51:27.328Z,72.80
2023-01-18T08:53:57.572Z,72.80
2023-01-18T08:56:27.483Z,72.70
2023-01-18T08:58:56.460Z,72.80
2023-01-18T09:01:25.712Z,72.80
2023-01-18T09:03:56.017Z,73.00
2023-01-18T09:06:24.465Z,73.20
2023-01-18T09:08:53.329Z,73.20
2023-01-18T09:11:21.356Z,73.40
2023-01-18T09:14:02.277Z,73.40
2023-01-18T09:16:31.979Z,73.50
2023-01-18T09:19:06.633Z,73.50
2023-01-18T09:21:35.651Z,73.60
2023-01-18T09:24:03.789Z,73.90
2023-01-18T09:26:31.757Z,74.00
2023-01-18T09:29:00.492Z,74.00
2023-01-18T09:31:29.123Z,74.20
2023-01-18T09:34:06.326Z,74.20
2023-01-18T09:36:45.622Z,74.30
2023-01-18T09:39:13.676Z,74.20
2023-01-18T09:41:45.073Z,74.10
2023-01-18T09:44:48.881Z,74.20
2023-01-18T09:47:29.143Z,74.20
2023-01-18T09:49:59.216Z,74.20
2023-01-18T09:52:47.592Z,74.00
2023-01-18T09:55:37.636Z,74.20
2023-01-18T09:58:46.328Z,74.00
2023-01-18T10:01:28.517Z,74.10
2023-01-18T10:04:06.540Z,73.90
2023-01-18T10:06:52.898Z,74.00
2023-01-18T10:09:50.958Z,74.10
2023-01-18T10:12:38.289Z,74.00
2023-01-18T10:15:20.703Z,74.00
2023-01-18T10:17:51.867Z,74.20
2023-01-18T10:20:42.686Z,74.20
2023-01-18T10:23:30.662Z,74.40
2023-01-18T10:26:18.305Z,74.30
2023-01-18T10:28:51.177Z,74.20
2023-01-18T10:36:01.782Z,74.20
2023-01-18T10:38:30.623Z,73.90
2023-01-18T10:41:02.405Z,73.90
2023-01-18T10:43:32.507Z,74.00
2023-01-18T10:46:01.377Z,74.00
2023-01-18T10:48:32.739Z,73.80
2023-01-18T10:51:07.774Z,73.80
2023-01-18T10:53:37.789Z,74.00
2023-01-18T10:56:26.644Z,74.00
2023-01-18T10:59:00.361Z,74.10
2023-01-18T11:01:32.139Z,74.10
2023-01-18T11:04:17.170Z,74.10
2023-01-18T11:06:47.997Z,74.00
2023-01-18T11:09:41.297Z,74.00
2023-01-18T11:12:34.151Z,74.00
2023-01-18T11:15:14.254Z,74.20
2023-01-18T11:17:56.323Z,74.10
2023-01-18T11:24:57.247Z,74.10
2023-01-18T11:27:26.247Z,74.00
2023-01-18T11:29:55.890Z,74.00
2023-01-18T11:32:30.255Z,73.60
2023-01-18T11:35:00.516Z,73.40
2023-01-18T11:37:40.467Z,73.40
2023-01-18T11:40:27.094Z,73.70
2023-01-18T11:43:04.232Z,73.90
2023-01-18T11:46:10.936Z,74.10
2023-01-18T11:49:10.262Z,74.20
2023-01-18T11:51:48.354Z,74.10
2023-01-18T11:54:35.036Z,73.80
2023-01-18T11:57:04.951Z,73.70
2023-01-18T11:59:42.196Z,73.40
2023-01-18T12:02:30.304Z,73.50
2023-01-18T12:05:17.252Z,73.60
2023-01-18T12:08:07.080Z,73.70
2023-01-18T12:10:54.939Z,73.60
2023-01-18T12:13:49.148Z,73.60
2023-01-18T12:16:27.598Z,73.50
2023-01-18T12:19:17.249Z,73.40
2023-01-18T12:22:14.855Z,73.60
2023-01-18T12:24:55.578Z,73.70
2023-01-18T12:27:49.882Z,73.80
2023-01-18T12:30:44.227Z,73.60
2023-01-18T12:33:47.494Z,73.60
2023-01-18T12:36:21.316Z,73.60
2023-01-18T12:38:56.592Z,73.60
2023-01-18T12:41:54.441Z,73.80
2023-01-18T12:44:46.340Z,73.60
2023-01-18T12:47:35.667Z,73.50
2023-01-18T12:50:13.189Z,73.40
2023-01-18T12:52:49.627Z,73.50
2023-01-18T12:55:22.475Z,73.60
2023-01-18T12:57:55.073Z,73.70
2023-01-18T13:00:40.880Z,73.80
2023-01-18T13:03:19.453Z,73.90
2023-01-18T13:06:02.302Z,73.80
2023-01-18T13:08:47.332Z,73.80
2023-01-18T13:11:21.259Z,73.80
2023-01-18T13:13:59.486Z,74.00
2023-01-18T13:17:09.053Z,74.00
2023-01-18T13:19:46.008Z,73.80
2023-01-18T13:22:37.368Z,73.70
2023-01-18T13:25:23.579Z,73.60
2023-01-18T13:28:05.844Z,73.70
2023-01-18T13:30:47.817Z,73.80
2023-01-18T13:33:24.203Z,73.90
2023-01-18T13:36:03.293Z,74.10
2023-01-18T13:38:42.260Z,74.00
2023-01-18T13:41:13.520Z,74.10
2023-01-18T13:43:41.812Z,74.00
2023-01-18T13:46:10.181Z,73.90
2023-01-18T13:48:54.593Z,73.80
2023-01-18T13:51:40.231Z,73.80
2023-01-18T13:54:16.022Z,73.80
2023-01-18T13:57:04.376Z,73.60
2023-01-18T13:59:49.850Z,73.70
2023-01-18T14:02:44.282Z,73.70
2023-01-18T14:05:25.148Z,73.80
2023-01-18T14:07:57.814Z,73.70
2023-01-18T14:10:37.085Z,73.70
2023-01-18T14:13:08.314Z,73.70
2023-01-18T14:15:54.073Z,73.70
2023-01-18T14:18:30.723Z,73.70
2023-01-18T14:21:27.961Z,73.70
2023-01-18T14:24:06.920Z,73.80
2023-01-18T14:26:37.486Z,73.80
2023-01-18T14:29:34.990Z,73.70
2023-01-18T14:32:27.073Z,73.70
2023-01-18T14:35:01.870Z,73.70
2023-01-18T14:37:32.123Z,73.60
2023-01-18T14:40:07.084Z,73.60
2023-01-18T14:42:38.424Z,73.60
2023-01-18T14:45:21.568Z,73.70
2023-01-18T14:47:50.048Z,73.80
2023-01-18T14:50:20.990Z,73.90
2023-01-18T14:52:50.651Z,74.10
2023-01-18T14:55:28.286Z,74.20
2023-01-18T14:58:15.137Z,74.00
2023-01-18T15:00:49.222Z,74.00
2023-01-18T15:03:23.880Z,74.00
2023-01-18T15:06:02.538Z,74.00
2023-01-18T15:08:34.348Z,73.90
2023-01-18T15:11:05.561Z,73.80
2023-01-18T15:13:42.624Z,73.80
2023-01-18T15:16:11.762Z,73.90
2023-01-18T15:18:42.042Z,73.90
2023-01-18T15:25:43.903Z,74.10
2023-01-18T15:28:23.339Z,74.20
2023-01-18T15:30:56.326Z,74.30
2023-01-18T15:33:28.418Z,74.30
2023-01-18T15:36:00.892Z,74.30
2023-01-18T15:38:29.093Z,74.30
2023-01-18T15:41:03.592Z,74.20
2023-01-18T15:43:35.768Z,74.20
2023-01-18T15:46:13.154Z,74.10
2023-01-18T15:48:57.132Z,74.10
2023-01-18T15:51:45.270Z,74.20
2023-01-18T15:54:27.804Z,74.20
2023-01-18T15:57:11.345Z,74.20
2023-01-18T15:59:42.318Z,74.40
2023-01-18T16:02:20.948Z,74.20
2023-01-18T16:04:48.856Z,74.20
2023-01-18T16:07:36.807Z,74.20
2023-01-18T16:10:20.391Z,74.30
2023-01-18T16:12:48.740Z,74.40
2023-01-18T16:15:26.196Z,74.40
2023-01-18T16:18:04.389Z,74.30
2023-01-18T16:20:34.187Z,74.30
2023-01-18T16:23:23.197Z,74.20
2023-01-18T16:25:53.556Z,74.30
2023-01-18T16:28:24.957Z,74.20
2023-01-18T16:30:54.033Z,74.20
2023-01-18T16:33:22.458Z,74.10
2023-01-18T16:35:51.297Z,74.10
2023-01-18T16:38:22.797Z,74.10
2023-01-18T16:40:51.415Z,74.10
2023-01-18T16:43:19.667Z,74.00
2023-01-18T16:45:50.165Z,74.00
2023-01-18T16:48:22.154Z,74.10
2023-01-18T16:50:51.027Z,74.20
2023-01-18T16:53:20.244Z,74.30
2023-01-18T16:55:49.585Z,74.40
2023-01-18T16:58:19.137Z,74.50
2023-01-18T17:01:20.006Z,74.60
2023-01-18T17:03:50.858Z,74.60
2023-01-18T17:06:22.873Z,74.60
2023-01-18T17:08:51.642Z,74.60
2023-01-18T17:11:19.618Z,74.60
2023-01-18T17:13:48.112Z,74.60
2023-01-18T17:16:21.156Z,74.50
2023-01-18T17:18:50.488Z,74.50
2023-01-18T17:25:50.687Z,74.60
2023-01-18T17:28:20.207Z,74.60
2023-01-18T17:30:50.365Z,74.60
2023-01-18T17:33:25.149Z,74.60
2023-01-18T17:35:55.327Z,74.70
2023-01-18T17:38:27.117Z,74.70
2023-01-18T17:45:22.830Z,74.70
2023-01-18T17:47:52.810Z,74.60
2023-01-18T17:50:25.819Z,74.80
2023-01-18T17:52:55.457Z,74.90
2023-01-18T17:55:34.269Z,75.00
2023-01-18T17:58:03.910Z,75.00
2023-01-18T18:05:08.329Z,75.00
2023-01-18T18:07:37.075Z,75.00
2023-01-18T18:10:08.449Z,75.10
2023-01-18T18:12:37.917Z,75.10
2023-01-18T18:15:10.112Z,75.00
2023-01-18T18:17:39.189Z,75.00
2023-01-18T18:20:15.387Z,75.10
2023-01-18T18:22:45.499Z,75.00
2023-01-18T18:25:15.380Z,75.10
2023-01-18T18:27:47.057Z,75.20
2023-01-18T18:34:51.068Z,75.30
2023-01-18T18:37:20.943Z,75.20
2023-01-18T18:44:28.663Z,75.30
2023-01-18T18:46:59.882Z,75.10
2023-01-18T18:49:28.988Z,75.20
2023-01-18T18:52:00.993Z,75.30
2023-01-18T18:54:30.389Z,75.30
2023-01-18T18:57:03.973Z,75.40
2023-01-18T18:59:36.090Z,75.40
2023-01-18T19:02:05.173Z,75.40
2023-01-18T19:04:35.045Z,75.40
2023-01-18T19:13:21.575Z,75.40
2023-01-18T19:15:52.074Z,75.50
2023-01-18T19:18:21.698Z,75.50
2023-01-18T19:20:53.647Z,75.60
2023-01-18T19:23:22.214Z,75.60
2023-01-18T19:25:52.954Z,75.50
2023-01-18T19:28:23.459Z,75.50
2023-01-18T19:30:54.557Z,75.50
2023-01-18T19:33:23.449Z,75.50
2023-01-18T19:35:54.815Z,75.50
2023-01-18T19:38:24.285Z,75.70
2023-01-18T19:40:54.437Z,75.70
2023-01-18T19:43:25.131Z,75.70
2023-01-18T19:45:55.645Z,75.70
2023-01-18T19:48:25.080Z,75.70
2023-01-18T19:50:56.067Z,75.60
2023-01-18T19:53:30.367Z,75.60
2023-01-18T20:00:48.042Z,75.70
2023-01-18T20:03:20.047Z,75.70
2023-01-18T20:05:48.824Z,75.80
2023-01-18T20:08:18.413Z,75.90
2023-01-18T20:10:47.478Z,75.90
2023-01-18T20:13:17.099Z,76.00
2023-01-18T20:15:51.519Z,76.00
2023-01-18T20:18:23.774Z,76.00
2023-01-18T20:20:53.006Z,76.00
2023-01-18T20:23:22.549Z,76.10
2023-01-18T20:25:54.685Z,76.10
2023-01-18T20:28:26.007Z,76.10
2023-01-18T20:30:54.955Z,76.10
2023-01-18T20:33:26.033Z,76.10
2023-01-18T20:35:55.865Z,76.10
2023-01-18T20:38:26.474Z,76.20
2023-01-18T20:40:56.504Z,76.20
2023-01-18T20:43:26.974Z,76.20
2023-01-18T20:46:10.483Z,76.40
2023-01-18T20:48:40.234Z,76.50
2023-01-18T20:51:10.930Z,76.50
2023-01-18T20:53:40.359Z,76.60
2023-01-18T20:56:28.292Z,76.60
2023-01-18T20:58:59.407Z,76.50
2023-01-18T21:01:33.165Z,76.50
2023-01-18T21:04:05.137Z,76.50
2023-01-18T21:06:35.570Z,76.50
2023-01-18T21:09:04.442Z,76.60
2023-01-18T21:11:32.595Z,76.70
2023-01-18T21:14:00.886Z,76.70
2023-01-18T21:16:29.152Z,76.70
2023-01-18T21:18:59.583Z,76.70
2023-01-18T21:21:29.562Z,76.70
2023-01-18T21:23:58.074Z,76.70
2023-01-18T21:26:25.990Z,76.60
2023-01-18T21:28:55.362Z,76.70
2023-01-18T21:31:23.391Z,76.80
2023-01-18T21:33:51.888Z,76.90
2023-01-18T21:36:20.361Z,76.90
2023-01-18T21:38:48.355Z,76.80
2023-01-18T21:41:34.975Z,76.90
2023-01-18T21:44:21.246Z,76.90
2023-01-18T21:46:51.391Z,76.80
2023-01-18T21:52:47.788Z,76.80
2023-01-18T21:55:17.285Z,76.80
2023-01-18T21:57:45.289Z,76.80
2023-01-18T22:00:13.780Z,76.90
2023-01-18T22:02:41.511Z,76.90
2023-01-18T22:05:10.106Z,76.90
2023-01-18T22:07:37.894Z,77.00
2023-01-18T22:10:07.237Z,77.10
2023-01-18T22:12:36.581Z,77.10
2023-01-18T22:15:05.437Z,77.10
2023-01-18T22:17:33.232Z,77.10
2023-01-18T22:20:02.198Z,77.10
2023-01-18T22:22:30.257Z,77.10
2023-01-18T22:25:00.439Z,77.00
2023-01-18T22:27:28.254Z,77.10
2023-01-18T22:29:56.374Z,77.20
2023-01-18T22:32:24.158Z,77.20
2023-01-18T22:34:52.378Z,77.20
2023-01-18T22:37:20.083Z,77.30
2023-01-18T22:39:48.090Z,77.30
2023-01-18T22:42:15.753Z,77.30
2023-01-18T22:44:43.890Z,77.30
2023-01-18T22:47:11.618Z,77.30
2023-01-18T22:49:39.843Z,77.30
2023-01-18T22:52:07.579Z,77.40
2023-01-18T22:54:35.654Z,77.40
2023-01-18T22:57:03.339Z,77.50
2023-01-18T22:59:31.315Z,77.50
2023-01-18T23:01:59.511Z,77.50
2023-01-18T23:04:29.696Z,77.50
2023-01-18T23:07:01.030Z,77.50
2023-01-18T23:09:29.550Z,77.50
2023-01-18T23:11:57.459Z,77.50
2023-01-18T23:14:43.840Z,77.40
2023-01-18T23:17:30.674Z,77.40
2023-01-18T23:19:58.739Z,77.40
2023-01-18T23:22:26.473Z,77.50
2023-01-18T23:24:55.313Z,77.50
2023-01-18T23:27:23.486Z,77.50
2023-01-18T23:29:58.955Z,77.50
2023-01-18T23:32:30.713Z,77.50
2023-01-18T23:35:00.217Z,77.50
2023-01-18T23:37:28.243Z,77.50
2023-01-18T23:40:15.065Z,77.40
2023-01-18T23:43:01.367Z,77.40
2023-01-18T23:45:47.750Z,77.50
2023-01-18T23:48:35.889Z,77.50
2023-01-18T23:51:23.564Z,77.40
2023-01-18T23:54:09.511Z,77.40
2023-01-18T23:56:37.453Z,77.50
2023-01-18T23:59:06.013Z,77.50
